Time;durP1;ratioP1;P1;durP2;ratioP2;P2;SDS_P1;SDS_P2;PMS_P1;PMS_P2;Temp;Humidity;BMP_temperature;BMP_pressure;BME280_temperature;BME280_humidity;BME280_pressure;Samples;Min_cycle;Max_cycle;Signal;HPM_P1;HPM_P2
2022/04/05 00:02:00;;;;;;;32.75;3.60;;;7.50;99.90;;;;;;5072717;28;20044;-68
2022/04/05 00:04:26;;;;;;;30.85;4.25;;;8.50;99.90;;;;;;5072721;28;20050;-68
2022/04/05 00:06:51;;;;;;;25.00;3.38;;;7.20;99.90;;;;;;5072639;28;20055;-68
2022/04/05 00:09:17;;;;;;;26.40;3.33;;;8.30;99.90;;;;;;5072588;28;20040;-69
2022/04/05 00:11:43;;;;;;;30.92;3.80;;;7.60;99.90;;;;;;5054844;28;20075;-67
2022/04/05 00:14:09;;;;;;;25.65;4.03;;;8.70;99.90;;;;;;5072569;28;20052;-68
2022/04/05 00:16:35;;;;;;;31.35;3.55;;;7.50;99.90;;;;;;5054750;28;20041;-68
2022/04/05 00:19:00;;;;;;;32.00;3.67;;;7.20;99.90;;;;;;5072572;28;20044;-68
2022/04/05 00:21:26;;;;;;;39.22;3.83;;;8.40;99.90;;;;;;5054822;28;20052;-69
2022/04/05 00:23:52;;;;;;;31.33;3.72;;;7.70;99.90;;;;;;5054688;28;20055;-69
2022/04/05 00:26:17;;;;;;;25.55;3.03;;;7.10;99.90;;;;;;5072186;28;20048;-68
2022/04/05 00:28:43;;;;;;;31.13;4.22;;;8.10;99.90;;;;;;5072418;28;20097;-68
2022/04/05 00:31:09;;;;;;;22.55;3.30;;;7.60;99.90;;;;;;5072423;28;20059;-68
2022/04/05 00:33:35;;;;;;;29.60;3.53;;;7.70;99.90;;;;;;5072058;28;20412;-68
2022/04/05 00:36:00;;;;;;;33.08;3.50;;;8.20;99.90;;;;;;5072402;28;20048;-68
2022/04/05 00:38:26;;;;;;;23.48;3.00;;;7.80;99.90;;;;;;5072337;28;20085;-69
2022/04/05 00:40:52;;;;;;;15.10;2.50;;;7.40;99.90;;;;;;5072388;28;20114;-69
2022/04/05 00:43:17;;;;;;;21.20;3.20;;;8.30;99.90;;;;;;5054572;28;20067;-71
2022/04/05 00:45:43;;;;;;;22.67;3.15;;;7.70;99.90;;;;;;5054288;28;20083;-69
2022/04/05 00:48:09;;;;;;;35.55;3.40;;;7.60;99.90;;;;;;5072279;28;20049;-69
2022/04/05 00:50:37;;;;;;;14.95;1.98;;;7.60;99.90;;;;;;5072223;28;20040;-68
2022/04/05 00:53:05;;;;;;;13.75;2.58;;;7.20;99.90;;;;;;5058290;28;20185;-70
2022/04/05 00:55:32;;;;;;;28.98;3.72;;;7.00;99.90;;;;;;5058472;28;20124;-69
2022/04/05 00:58:01;;;;;;;18.40;2.45;;;7.00;99.90;;;;;;5076194;28;20063;-69
2022/04/05 01:00:27;;;;;;;18.85;2.35;;;6.80;99.90;;;;;;5058444;28;20056;-69
2022/04/05 01:02:54;;;;;;;18.17;2.45;;;6.80;99.90;;;;;;5076045;28;20068;-69
2022/04/05 01:05:22;;;;;;;14.50;2.55;;;6.60;99.90;;;;;;5076008;28;20044;-68
2022/04/05 01:07:50;;;;;;;26.20;2.78;;;6.70;99.90;;;;;;5075948;28;20078;-69
2022/04/05 01:10:16;;;;;;;19.35;2.90;;;7.00;99.90;;;;;;5057855;28;20041;-68
2022/04/05 01:12:42;;;;;;;28.25;3.53;;;6.90;99.90;;;;;;5075605;28;20036;-68
2022/04/05 01:15:08;;;;;;;23.98;2.97;;;8.00;99.90;;;;;;5041650;28;20055;-69
2022/04/05 01:17:34;;;;;;;;;;;6.70;99.90;;;;;;5076207;28;20048;-69
2022/04/05 01:20:00;;;;;;;24.65;2.80;;;6.90;99.90;;;;;;5075704;28;19927;-69
2022/04/05 01:22:27;;;;;;;21.92;2.72;;;7.60;99.90;;;;;;5041037;28;20463;-69
2022/04/05 01:24:52;;;;;;;28.75;4.10;;;8.00;99.90;;;;;;5075369;28;20512;-69
2022/04/05 01:27:19;;;;;;;26.17;3.83;;;7.20;99.90;;;;;;5057723;28;20051;-68
2022/04/05 01:29:47;;;;;;;23.55;2.85;;;7.00;99.90;;;;;;5075182;28;20075;-69
2022/04/05 01:32:13;;;;;;;34.80;3.13;;;6.80;99.90;;;;;;5075465;28;20084;-69
2022/04/05 01:34:40;;;;;;;25.85;2.97;;;7.10;99.90;;;;;;5075149;28;20544;-68
2022/04/05 01:37:07;;;;;;;;;;;6.90;99.90;;;;;;5075849;28;20084;-69
2022/04/05 01:39:34;;;;;;;25.40;3.35;;;6.60;99.90;;;;;;5075385;28;19924;-68
2022/04/05 01:42:22;;;;;;;34.67;4.57;;;6.80;99.90;;;;;;5075242;28;20049;-68
2022/04/05 01:44:48;;;;;;;32.13;3.30;;;6.50;99.90;;;;;;5057679;28;20051;-69
2022/04/05 01:47:15;;;;;;;20.05;3.50;;;6.80;99.90;;;;;;5075325;28;20040;-69
2022/04/05 01:49:43;;;;;;;25.20;3.08;;;7.80;99.90;;;;;;5074824;28;20499;-68
2022/04/05 01:52:10;;;;;;;29.65;3.05;;;6.70;99.90;;;;;;5075152;28;20174;-68
2022/04/05 01:54:36;;;;;;;26.85;3.28;;;7.00;99.90;;;;;;5075183;28;20048;-68
2022/04/05 01:57:03;;;;;;;36.22;3.65;;;6.90;99.90;;;;;;5075153;28;20055;-68
2022/04/05 01:59:30;;;;;;;26.23;3.78;;;6.80;99.90;;;;;;5074990;28;20506;-68
2022/04/05 02:01:56;;;;;;;22.92;3.45;;;6.50;99.90;;;;;;5056687;28;20040;-69
2022/04/05 02:04:22;;;;;;;32.00;3.08;;;6.50;99.90;;;;;;5057061;28;20105;-68
2022/04/05 02:06:48;;;;;;;26.65;3.28;;;6.60;99.90;;;;;;5074964;28;20056;-69
2022/04/05 02:09:16;;;;;;;34.88;3.65;;;6.70;99.90;;;;;;5074783;28;20147;-68
2022/04/05 02:11:43;;;;;;;29.38;3.90;;;6.60;99.90;;;;;;5074844;28;20102;-68
2022/04/05 02:14:10;;;;;;;27.75;3.63;;;7.70;99.90;;;;;;5074767;28;20045;-68
2022/04/05 02:16:36;;;;;;;20.58;3.55;;;6.60;99.90;;;;;;5074716;28;20048;-69
2022/04/05 02:19:02;;;;;;;24.48;3.03;;;6.80;99.90;;;;;;5074740;28;20047;-69
2022/04/05 02:21:27;;;;;;;31.73;3.15;;;6.80;99.90;;;;;;5074619;28;20485;-69
2022/04/05 02:23:53;;;;;;;17.88;3.78;;;6.80;99.90;;;;;;5074319;28;20074;-68
2022/04/05 02:26:19;;;;;;;25.13;2.70;;;6.70;99.90;;;;;;5074515;28;20052;-69
2022/04/05 02:28:44;;;;;;;16.33;2.63;;;6.80;99.90;;;;;;5074568;28;20152;-69
2022/04/05 02:31:10;;;;;;;20.40;2.30;;;6.70;99.90;;;;;;5056002;28;20064;-68
2022/04/05 02:33:36;;;;;;;25.23;2.63;;;7.20;99.90;;;;;;5056477;28;20131;-68
2022/04/05 02:36:03;;;;;;;23.98;2.58;;;6.70;99.90;;;;;;5074491;28;20044;-69
2022/04/05 02:38:29;;;;;;;27.30;3.05;;;6.90;99.90;;;;;;5074287;28;20088;-69
2022/04/05 02:40:57;;;;;;;;;;;6.80;99.90;;;;;;5056908;28;20045;-69
2022/04/05 02:43:23;;;;;;;;;;;6.70;99.90;;;;;;5074737;28;19920;-68
2022/04/05 02:45:49;;;;;;;23.13;2.47;;;6.70;99.90;;;;;;5056446;28;19971;-69
2022/04/05 02:48:15;;;;;;;21.52;2.78;;;6.60;99.90;;;;;;5073811;28;20503;-69
2022/04/05 02:50:41;;;;;;;22.13;2.67;;;7.30;99.90;;;;;;5074069;28;20059;-69
2022/04/05 02:53:07;;;;;;;35.40;3.22;;;6.60;99.90;;;;;;5056242;28;20056;-69
2022/04/05 02:55:33;;;;;;;24.05;3.13;;;6.80;99.90;;;;;;5073961;28;20125;-69
2022/04/05 02:57:58;;;;;;;25.17;3.05;;;6.20;99.90;;;;;;5073928;28;20056;-69
2022/04/05 03:00:24;;;;;;;16.50;2.72;;;6.40;99.90;;;;;;5073895;28;20087;-69
2022/04/05 03:02:50;;;;;;;25.70;2.50;;;6.80;99.90;;;;;;5055962;28;20040;-69
2022/04/05 03:05:18;;;;;;;17.33;2.40;;;6.90;99.90;;;;;;5073759;28;20044;-69
2022/04/05 03:07:43;;;;;;;22.20;2.55;;;8.10;99.90;;;;;;5073684;28;20096;-69
2022/04/05 03:10:11;;;;;;;19.77;2.88;;;6.40;99.90;;;;;;5073650;28;20088;-69
2022/04/05 03:12:37;;;;;;;22.73;2.70;;;6.80;99.90;;;;;;5073622;28;20511;-69
2022/04/05 03:15:07;;;;;;;25.75;2.97;;;6.80;99.90;;;;;;5072955;28;20056;-68
2022/04/05 03:17:34;;;;;;;28.33;2.63;;;6.60;99.90;;;;;;5073590;28;20488;-69
2022/04/05 03:20:01;;;;;;;20.25;2.60;;;6.70;99.90;;;;;;5055640;28;20059;-69
2022/04/05 03:22:27;;;;;;;19.90;2.60;;;6.90;99.90;;;;;;5055714;28;20099;-69
2022/04/05 03:24:52;;;;;;;26.58;3.15;;;6.70;99.90;;;;;;5073702;28;20084;-68
2022/04/05 03:27:18;;;;;;;28.90;2.97;;;6.60;99.90;;;;;;5073334;28;20052;-68
2022/04/05 03:29:44;;;;;;;23.13;3.20;;;7.50;99.90;;;;;;5055320;28;20069;-69
2022/04/05 03:32:11;;;;;;;25.70;3.25;;;6.50;99.90;;;;;;5073404;28;20060;-68
2022/04/05 03:34:37;;;;;;;26.90;2.83;;;6.40;99.90;;;;;;5073218;28;20127;-68
2022/04/05 03:37:04;;;;;;;17.08;2.72;;;6.80;99.90;;;;;;5055303;28;20059;-69
2022/04/05 03:39:29;;;;;;;;;;;6.60;99.90;;;;;;5073612;28;20269;-68
2022/04/05 03:41:55;;;;;;;15.63;2.10;;;6.70;99.90;;;;;;5073091;28;20019;-69
2022/04/05 03:44:21;;;;;;;27.08;2.63;;;8.10;99.90;;;;;;5022107;28;20059;-69
2022/04/05 03:46:47;;;;;;;22.15;2.33;;;6.90;99.90;;;;;;5073069;28;20048;-68
2022/04/05 03:49:13;;;;;;;20.67;2.90;;;6.80;99.90;;;;;;5073016;28;20496;-69
2022/04/05 03:51:38;;;;;;;23.05;2.20;;;6.70;99.90;;;;;;5055128;28;20477;-69
2022/04/05 03:54:04;;;;;;;15.98;2.40;;;6.30;99.90;;;;;;5072888;28;20426;-70
2022/04/05 03:56:30;;;;;;;13.20;2.92;;;6.70;99.90;;;;;;5072945;28;20052;-70
2022/04/05 03:58:56;;;;;;;21.38;2.70;;;6.20;99.90;;;;;;5055273;28;20055;-68
2022/04/05 04:01:21;;;;;;;19.13;2.30;;;7.70;99.90;;;;;;5072817;28;20060;-68
2022/04/05 04:03:47;;;;;;;22.38;2.63;;;6.30;99.90;;;;;;5072772;28;20084;-68
2022/04/05 04:06:13;;;;;;;24.42;3.30;;;6.60;99.90;;;;;;5055002;28;20072;-67
2022/04/05 04:08:38;;;;;;;18.13;2.53;;;6.20;99.90;;;;;;5054580;28;20129;-68
2022/04/05 04:11:04;;;;;;;21.38;2.95;;;6.60;99.90;;;;;;5072669;28;20052;-70
2022/04/05 04:13:30;;;;;;;23.17;2.80;;;6.40;99.90;;;;;;5054793;28;20048;-69
2022/04/05 04:15:58;;;;;;;26.80;2.60;;;6.40;99.90;;;;;;5054996;28;20044;-69
2022/04/05 04:18:24;;;;;;;32.10;2.60;;;6.70;99.90;;;;;;5072339;28;20554;-69
2022/04/05 04:20:50;;;;;;;23.17;2.38;;;6.20;99.90;;;;;;5072614;28;20041;-68
2022/04/05 04:23:16;;;;;;;16.92;2.20;;;7.30;99.90;;;;;;5054590;28;20081;-68
2022/04/05 04:25:42;;;;;;;16.45;2.67;;;6.60;99.90;;;;;;5072278;28;20101;-68
2022/04/05 04:28:08;;;;;;;30.90;2.80;;;7.10;99.90;;;;;;5072537;28;20044;-67
2022/04/05 04:30:37;;;;;;;25.40;3.00;;;6.70;99.90;;;;;;5053872;28;20060;-69
2022/04/05 04:33:03;;;;;;;28.20;2.75;;;6.60;99.90;;;;;;5054531;28;20056;-68
2022/04/05 04:35:30;;;;;;;26.88;2.45;;;6.40;99.90;;;;;;5072456;28;20064;-68
2022/04/05 04:37:56;;;;;;;24.75;3.10;;;6.10;99.90;;;;;;5072515;28;20044;-68
2022/04/05 04:40:22;;;;;;;34.53;3.65;;;6.60;99.90;;;;;;5072444;28;20052;-67
2022/04/05 04:42:48;;;;;;;27.25;3.10;;;6.30;99.90;;;;;;5054439;28;20055;-68
2022/04/05 04:45:14;;;;;;;31.52;3.40;;;6.50;99.90;;;;;;5037827;28;20099;-68
2022/04/05 04:47:40;;;;;;;25.35;2.70;;;7.90;99.90;;;;;;5072327;28;20504;-67
2022/04/05 04:50:08;;;;;;;20.60;2.67;;;7.10;99.90;;;;;;5054469;28;20044;-68
2022/04/05 04:52:35;;;;;;;25.65;2.88;;;6.40;99.90;;;;;;5072222;28;20106;-70
2022/04/05 04:55:00;;;;;;;23.13;2.95;;;7.40;99.90;;;;;;5054618;28;20485;-68
2022/04/05 04:57:26;;;;;;;34.50;3.20;;;7.60;99.90;;;;;;5071961;28;20044;-69
2022/04/05 04:59:53;;;;;;;25.52;2.75;;;6.80;99.90;;;;;;5054471;28;20127;-68
2022/04/05 05:02:22;;;;;;;29.33;2.92;;;6.60;99.90;;;;;;5054336;28;20045;-68
2022/04/05 05:04:49;;;;;;;27.45;3.50;;;6.80;99.90;;;;;;5072086;28;20396;-70
2022/04/05 05:07:15;;;;;;;37.80;3.80;;;6.50;99.90;;;;;;5071788;28;20654;-68
2022/04/05 05:09:41;;;;;;;20.63;3.47;;;6.50;99.90;;;;;;5072134;28;20109;-68
2022/04/05 05:12:10;;;;;;;27.55;3.45;;;7.70;99.90;;;;;;5054431;28;20052;-68
2022/04/05 05:14:36;;;;;;;31.52;3.95;;;6.40;99.90;;;;;;5072002;28;20052;-69
2022/04/05 05:17:02;;;;;;;32.22;3.35;;;6.90;99.90;;;;;;5072107;28;20396;-69
2022/04/05 05:19:27;;;;;;;28.75;3.97;;;6.50;99.90;;;;;;5072000;28;20097;-69
2022/04/05 05:21:53;;;;;;;26.45;3.20;;;6.80;99.90;;;;;;5071934;28;20531;-67
2022/04/05 05:24:18;;;;;;;32.38;4.18;;;7.20;99.90;;;;;;5071897;28;20388;-68
2022/04/05 05:26:44;;;;;;;19.08;3.03;;;6.40;99.90;;;;;;5071963;28;20048;-68
2022/04/05 05:29:11;;;;;;;26.85;3.55;;;6.60;99.90;;;;;;5071666;28;20057;-69
2022/04/05 05:31:36;;;;;;;36.58;4.55;;;6.50;99.90;;;;;;5053992;28;20048;-68
2022/04/05 05:34:02;;;;;;;32.33;3.63;;;7.00;99.90;;;;;;5053873;28;20136;-67
2022/04/05 05:36:28;;;;;;;29.45;3.50;;;6.50;99.90;;;;;;5071985;28;20049;-67
2022/04/05 05:38:53;;;;;;;25.33;3.20;;;6.70;99.90;;;;;;5075501;28;20523;-69
2022/04/05 05:41:19;;;;;;;28.40;3.58;;;7.00;99.90;;;;;;5075428;28;20044;-67
2022/04/05 05:43:45;;;;;;;32.75;3.28;;;6.60;99.90;;;;;;5075444;28;20095;-67
2022/04/05 05:46:14;;;;;;;30.30;3.88;;;6.30;99.90;;;;;;5075339;28;20493;-68
2022/04/05 05:48:40;;;;;;;29.13;3.30;;;6.70;99.90;;;;;;5057375;28;20045;-68
2022/04/05 05:51:06;;;;;;;27.75;3.85;;;6.70;99.90;;;;;;5057266;28;20055;-69
2022/04/05 05:53:32;;;;;;;23.10;3.22;;;6.70;99.90;;;;;;5075143;28;20477;-68
2022/04/05 05:55:58;;;;;;;26.02;3.20;;;6.80;99.90;;;;;;5041044;28;20518;-68
2022/04/05 05:58:24;;;;;;;31.65;2.95;;;7.10;99.90;;;;;;5057455;28;20044;-68
2022/04/05 06:00:51;;;;;;;26.77;3.15;;;7.80;99.90;;;;;;5075084;28;20041;-68
2022/04/05 06:03:17;;;;;;;28.40;3.28;;;6.80;99.90;;;;;;5074982;28;20056;-68
2022/04/05 06:05:45;;;;;;;36.88;3.75;;;7.50;99.90;;;;;;5074949;28;20048;-68
2022/04/05 06:08:13;;;;;;;21.65;2.67;;;6.90;99.90;;;;;;5074839;28;20052;-68
2022/04/05 06:10:38;;;;;;;26.85;2.92;;;8.90;99.90;;;;;;5074907;28;20051;-68
2022/04/05 06:13:04;;;;;;;22.38;3.05;;;6.70;99.90;;;;;;5042304;28;20052;-68
2022/04/05 06:15:30;;;;;;;27.35;2.40;;;6.40;99.90;;;;;;5073648;28;20045;-68
2022/04/05 06:17:58;;;;;;;33.80;3.70;;;8.40;99.90;;;;;;5072662;28;20055;-69
2022/04/05 06:20:24;;;;;;;24.00;3.45;;;6.70;99.90;;;;;;5072855;28;20522;-68
2022/04/05 06:22:52;;;;;;;31.00;3.10;;;6.90;99.90;;;;;;5072920;28;20669;-69
2022/04/05 06:25:20;;;;;;;29.42;2.92;;;6.70;99.90;;;;;;5052959;28;20057;-69
2022/04/05 06:27:46;;;;;;;17.00;2.67;;;7.00;99.90;;;;;;5072430;28;20052;-73
2022/04/05 06:30:13;;;;;;;;;;;7.30;99.90;;;;;;5072789;28;20052;-69
2022/04/05 06:32:39;;;;;;;32.65;3.17;;;6.40;99.90;;;;;;5073290;28;19999;-69
2022/04/05 06:35:07;;;;;;;21.83;2.72;;;8.20;99.90;;;;;;5072650;28;20140;-68
2022/04/05 06:37:33;;;;;;;26.65;2.95;;;6.80;99.90;;;;;;5055139;28;20541;-70
2022/04/05 06:39:58;;;;;;;22.52;3.22;;;7.50;99.90;;;;;;5071588;28;20040;-68
2022/04/05 06:42:25;;;;;;;16.27;2.78;;;7.00;99.90;;;;;;5048467;28;20090;-68
2022/04/05 06:44:53;;;;;;;26.65;3.47;;;8.50;99.90;;;;;;5072876;28;20102;-68
2022/04/05 06:47:19;;;;;;;28.13;3.90;;;8.10;99.90;;;;;;5072641;28;20548;-68
2022/04/05 06:49:45;;;;;;;25.65;3.83;;;7.30;99.90;;;;;;5048564;28;20135;-68
2022/04/05 06:52:10;;;;;;;26.40;4.15;;;8.10;99.90;;;;;;5051460;28;20128;-68
2022/04/05 06:54:36;;;;;;;22.00;3.05;;;7.70;99.90;;;;;;5071912;28;20052;-69
2022/04/05 06:57:02;;;;;;;31.20;3.58;;;7.30;99.90;;;;;;5072146;28;20056;-68
2022/04/05 06:59:27;;;;;;;27.63;3.92;;;7.30;99.90;;;;;;5053073;28;20051;-69
2022/04/05 07:01:53;;;;;;;29.15;3.13;;;7.90;99.90;;;;;;5054479;28;20141;-68
2022/04/05 07:04:19;;;;;;;17.98;2.60;;;7.10;99.90;;;;;;5072005;28;20054;-70
2022/04/05 07:06:44;;;;;;;21.45;3.20;;;7.40;99.90;;;;;;5047080;28;20048;-68
2022/04/05 07:09:10;;;;;;;17.80;2.42;;;7.90;99.90;;;;;;5069913;28;20457;-68
2022/04/05 07:11:37;;;;;;;17.90;2.80;;;7.50;99.90;;;;;;5071734;28;20185;-68
2022/04/05 07:14:03;;;;;;;20.35;2.70;;;6.90;99.90;;;;;;5072199;28;20109;-68
2022/04/05 07:16:28;;;;;;;20.00;2.58;;;7.40;99.90;;;;;;5072295;28;20395;-69
2022/04/05 07:18:54;;;;;;;24.92;4.00;;;7.40;99.90;;;;;;5070308;28;20055;-69
2022/04/05 07:21:20;;;;;;;20.60;2.90;;;7.30;99.90;;;;;;5072383;28;20043;-68
2022/04/05 07:23:47;;;;;;;;;;;8.40;99.90;;;;;;5072323;28;20734;-69
2022/04/05 07:26:13;;;;;;;17.20;2.67;;;7.40;99.90;;;;;;5053797;28;19927;-69
2022/04/05 07:28:38;;;;;;;24.52;2.60;;;8.70;99.90;;;;;;5070639;28;20049;-70
2022/04/05 07:31:04;;;;;;;21.80;2.88;;;7.40;99.90;;;;;;5071944;28;20056;-70
2022/04/05 07:33:30;;;;;;;21.15;2.55;;;8.30;99.90;;;;;;5046271;28;20171;-72
2022/04/05 07:35:56;;;;;;;17.58;2.63;;;7.00;99.90;;;;;;5067393;28;20053;-70
2022/04/05 07:38:22;;;;;;;14.20;2.00;;;8.50;99.90;;;;;;5052063;28;20048;-68
2022/04/05 07:40:48;;;;;;;14.43;2.17;;;7.30;99.90;;;;;;5070852;28;20040;-73
2022/04/05 07:43:27;;;;;;;14.20;2.20;;;7.20;99.90;;;;;;5080944;28;20047;-71
2022/04/05 07:45:54;;;;;;;15.77;2.22;;;7.30;99.90;;;;;;5058414;28;20060;-68
2022/04/05 07:48:22;;;;;;;13.68;1.95;;;7.30;99.90;;;;;;5074629;28;20044;-70
2022/04/05 07:50:49;;;;;;;9.15;1.70;;;8.90;99.90;;;;;;5044030;28;20146;-72
2022/04/05 07:53:18;;;;;;;12.50;1.63;;;7.10;99.90;;;;;;5077290;28;20070;-69
2022/04/05 07:55:44;;;;;;;10.75;1.88;;;8.10;99.90;;;;;;5058389;28;20395;-72
2022/04/05 07:58:09;;;;;;;9.35;2.17;;;8.10;99.90;;;;;;5077406;28;20047;-73
2022/04/05 08:00:36;;;;;;;15.48;1.85;;;8.80;99.90;;;;;;5060849;28;20043;-71
2022/04/05 08:03:01;;;;;;;15.35;2.15;;;8.80;99.90;;;;;;5053384;28;20052;-70
2022/04/05 08:05:27;;;;;;;9.48;1.80;;;7.80;99.90;;;;;;5059391;28;20480;-71
2022/04/05 08:07:54;;;;;;;17.98;2.17;;;8.30;99.90;;;;;;5072737;28;20052;-70
2022/04/05 08:10:20;;;;;;;22.35;2.60;;;7.80;99.90;;;;;;5070526;28;20147;-72
2022/04/05 08:12:48;;;;;;;17.40;2.38;;;7.70;99.90;;;;;;5053154;28;20469;-70
2022/04/05 08:15:20;;;;;;;21.30;2.70;;;7.60;99.90;;;;;;5036626;28;20056;-71
2022/04/05 08:17:47;;;;;;;19.65;2.95;;;7.50;99.90;;;;;;5070430;28;20087;-72
2022/04/05 08:20:13;;;;;;;22.95;2.95;;;7.30;99.90;;;;;;5036189;28;20480;-70
2022/04/05 08:22:40;;;;;;;16.27;3.45;;;8.40;99.90;;;;;;5070873;28;20047;-71
2022/04/05 08:25:07;;;;;;;18.90;2.90;;;8.00;99.90;;;;;;5052290;28;20102;-70
2022/04/05 08:27:33;;;;;;;22.13;2.70;;;7.80;99.90;;;;;;5050271;28;20429;-69
2022/04/05 08:29:59;;;;;;;18.45;3.40;;;7.90;99.90;;;;;;5051071;28;20076;-70
2022/04/05 08:32:26;;;;;;;17.50;3.42;;;7.90;99.90;;;;;;5048457;28;20056;-69
2022/04/05 08:34:52;;;;;;;18.13;3.10;;;7.40;99.90;;;;;;5052779;28;20055;-70
2022/04/05 08:37:18;;;;;;;12.88;2.65;;;7.70;99.90;;;;;;5070738;28;20048;-70
2022/04/05 08:39:44;;;;;;;23.75;2.80;;;7.60;99.90;;;;;;5068939;28;20481;-69
2022/04/05 08:42:10;;;;;;;15.93;3.25;;;8.30;99.90;;;;;;5052887;28;20072;-69
2022/04/05 08:44:36;;;;;;;15.30;2.40;;;7.70;99.90;;;;;;5052415;28;20370;-72
2022/04/05 08:47:03;;;;;;;12.10;2.05;;;8.20;99.90;;;;;;5070256;28;20044;-70
2022/04/05 08:49:30;;;;;;;15.02;2.20;;;7.90;99.90;;;;;;5045606;28;20044;-68
2022/04/05 08:51:56;;;;;;;19.98;2.53;;;8.20;99.90;;;;;;5070570;28;20044;-70
2022/04/05 08:54:22;;;;;;;14.32;2.22;;;7.60;99.90;;;;;;5070686;28;20051;-70
2022/04/05 08:56:50;;;;;;;13.25;2.40;;;7.50;99.90;;;;;;5075388;28;20047;-71
2022/04/05 08:59:16;;;;;;;14.82;2.70;;;7.50;99.90;;;;;;5073320;28;20044;-76
2022/04/05 09:01:41;;;;;;;12.00;1.95;;;8.90;99.90;;;;;;5076560;28;20029;-72
2022/04/05 09:04:07;;;;;;;13.70;2.20;;;7.80;99.90;;;;;;5061065;28;20039;-73
2022/04/05 09:06:36;;;;;;;8.18;1.98;;;8.70;99.90;;;;;;5075665;28;20080;-72
2022/04/05 09:09:10;;;;;;;14.40;2.03;;;7.60;99.90;;;;;;5057310;28;20055;-72
2022/04/05 09:11:42;;;;;;;19.48;2.40;;;7.50;99.90;;;;;;5051017;28;20056;-71
2022/04/05 09:14:07;;;;;;;11.27;2.33;;;7.80;99.90;;;;;;5074366;28;20055;-70
2022/04/05 09:16:34;;;;;;;12.23;2.30;;;7.50;99.90;;;;;;5056633;28;20052;-74
2022/04/05 09:19:08;;;;;;;8.13;1.80;;;7.50;99.90;;;;;;5072653;28;20093;-71
2022/04/05 09:21:54;;;;;;;14.60;2.13;;;7.70;99.90;;;;;;5074185;28;20037;-72
2022/04/05 09:24:20;;;;;;;9.95;2.13;;;7.60;99.90;;;;;;5048164;28;20456;-72
2022/04/05 09:26:46;;;;;;;13.25;2.90;;;9.20;99.90;;;;;;5077977;28;20068;-70
2022/04/05 09:29:14;;;;;;;12.00;2.08;;;7.40;99.90;;;;;;5080664;28;20043;-71
2022/04/05 09:31:48;;;;;;;12.48;1.95;;;7.70;99.90;;;;;;5077444;28;20063;-71
2022/04/05 09:34:19;;;;;;;8.07;1.50;;;7.90;99.90;;;;;;5074031;28;20524;-72
2022/04/05 09:36:50;;;;;;;10.48;1.60;;;7.30;99.90;;;;;;5038169;28;20049;-71
2022/04/05 09:39:20;;;;;;;17.17;2.28;;;7.20;99.90;;;;;;5049785;28;20110;-68
2022/04/05 09:42:05;;;;;;;12.07;1.90;;;7.20;99.90;;;;;;5054834;28;20076;-73
2022/04/05 09:44:40;;;;;;;17.33;2.08;;;7.20;99.90;;;;;;5048559;28;20476;-71
2022/04/05 09:47:17;;;;;;;16.40;2.53;;;7.60;99.90;;;;;;5073324;28;20102;-72
2022/04/05 09:49:45;;;;;;;10.02;2.22;;;7.30;99.90;;;;;;5069064;28;20473;-69
2022/04/05 09:52:24;;;;;;;9.57;1.75;;;7.60;99.90;;;;;;5052897;28;20143;-69
2022/04/05 09:54:50;;;;;;;13.00;1.60;;;7.30;99.90;;;;;;5073347;28;20056;-69
2022/04/05 09:57:30;;;;;;;7.75;1.63;;;8.30;99.90;;;;;;5035416;28;20438;-69
2022/04/05 10:00:14;;;;;;;6.03;1.25;;;7.70;99.90;;;;;;5072567;28;20201;-70
2022/04/05 10:02:59;;;;;;;7.10;1.45;;;7.20;99.90;;;;;;5072441;28;20101;-69
2022/04/05 10:05:26;;;;;;;9.88;1.98;;;7.60;99.90;;;;;;5071863;28;20109;-70
2022/04/05 10:07:53;;;;;;;4.85;1.70;;;7.40;99.90;;;;;;5072302;28;20409;-69
2022/04/05 10:10:19;;;;;;;12.60;1.58;;;7.50;99.90;;;;;;5073070;28;20044;-71
2022/04/05 10:12:46;;;;;;;;;;;8.70;99.90;;;;;;5074107;28;20052;-69
2022/04/05 10:15:12;;;;;;;9.55;1.80;;;8.70;99.90;;;;;;5069498;28;19921;-69
2022/04/05 10:17:44;;;;;;;7.90;1.77;;;9.10;99.90;;;;;;5070032;28;20078;-69
2022/04/05 10:20:11;;;;;;;10.13;1.83;;;7.80;99.90;;;;;;5037076;28;20064;-68
2022/04/05 10:22:38;;;;;;;6.47;2.00;;;7.90;99.90;;;;;;5053723;28;20041;-68
2022/04/05 10:25:05;;;;;;;14.32;2.10;;;8.20;99.90;;;;;;5054371;28;20053;-68
2022/04/05 10:27:31;;;;;;;5.90;1.90;;;8.40;99.90;;;;;;5036367;28;20051;-68
2022/04/05 10:30:10;;;;;;;8.65;2.50;;;8.10;99.90;;;;;;5073646;28;20511;-68
2022/04/05 10:32:44;;;;;;;10.63;2.15;;;8.30;99.90;;;;;;5056093;28;20110;-68
2022/04/05 10:35:11;;;;;;;11.73;2.70;;;8.20;99.90;;;;;;5074281;28;20546;-68
2022/04/05 10:37:38;;;;;;;10.18;2.00;;;8.40;99.90;;;;;;5073989;28;20056;-68
2022/04/05 10:40:10;;;;;;;9.60;2.13;;;8.30;99.90;;;;;;5039747;28;20056;-68
2022/04/05 10:42:40;;;;;;;7.95;1.88;;;9.50;99.90;;;;;;5073726;28;20437;-68
2022/04/05 10:45:11;;;;;;;11.07;2.15;;;9.30;99.90;;;;;;5074059;28;20056;-67
2022/04/05 10:47:58;;;;;;;10.57;2.95;;;8.40;99.90;;;;;;5073488;28;20516;-68
2022/04/05 10:50:24;;;;;;;9.55;2.47;;;8.20;99.90;;;;;;5074044;28;20037;-68
2022/04/05 10:53:11;;;;;;;12.07;2.97;;;8.00;99.90;;;;;;5073815;28;20048;-69
2022/04/05 10:56:06;;;;;;;10.85;2.90;;;8.50;99.90;;;;;;5059783;28;20049;-68
2022/04/05 10:58:35;;;;;;;11.93;2.55;;;8.10;99.90;;;;;;5053884;28;20057;-69
2022/04/05 11:01:18;;;;;;;8.60;2.20;;;8.70;99.90;;;;;;5054136;28;20044;-69
2022/04/05 11:04:21;;;;;;;13.35;2.53;;;8.20;99.90;;;;;;5053826;28;20044;-68
2022/04/05 11:07:02;;;;;;;9.60;2.90;;;8.40;99.90;;;;;;5053866;28;20088;-69
2022/04/05 11:09:39;;;;;;;11.95;3.08;;;9.60;99.90;;;;;;5053590;28;20048;-68
2022/04/05 11:12:10;;;;;;;8.88;2.47;;;8.60;99.90;;;;;;5064187;28;20483;-69
2022/04/05 11:14:49;;;;;;;7.18;2.53;;;8.80;99.90;;;;;;5074167;28;20098;-68
2022/04/05 11:17:17;;;;;;;8.75;4.03;;;8.60;99.90;;;;;;5073512;28;20502;-68
2022/04/05 11:19:45;;;;;;;7.22;2.17;;;9.80;99.90;;;;;;5073474;28;20044;-68
2022/04/05 11:22:20;;;;;;;14.27;9.68;;;9.80;99.90;;;;;;5073439;28;20499;-69
2022/04/05 11:24:55;;;;;;;8.95;2.05;;;8.80;99.90;;;;;;5073371;28;20040;-68
2022/04/05 11:27:45;;;;;;;7.53;2.25;;;9.30;99.90;;;;;;5073315;28;20052;-68
2022/04/05 11:30:25;;;;;;;8.65;2.58;;;8.90;99.90;;;;;;5072943;28;20060;-68
2022/04/05 11:33:09;;;;;;;10.10;2.20;;;10.00;99.90;;;;;;5073346;28;20056;-68
2022/04/05 11:35:52;;;;;;;7.10;2.25;;;8.80;99.90;;;;;;5072524;28;20056;-70
2022/04/05 11:38:18;;;;;;;18.55;3.38;;;8.90;99.90;;;;;;5073213;28;20044;-68
2022/04/05 11:40:50;;;;;;;8.50;2.67;;;8.80;99.90;;;;;;5073098;28;20051;-68
2022/04/05 11:43:27;;;;;;;7.65;2.50;;;8.60;99.90;;;;;;5073054;28;20088;-68
2022/04/05 11:45:54;;;;;;;9.93;2.50;;;9.00;99.90;;;;;;5073063;28;20052;-68
2022/04/05 11:48:22;;;;;;;7.57;2.25;;;9.70;99.90;;;;;;5055293;28;20052;-69
2022/04/05 11:50:49;;;;;;;11.05;3.60;;;8.90;99.90;;;;;;5072755;28;20384;-68
2022/04/05 11:53:27;;;;;;;20.30;12.68;;;9.00;99.90;;;;;;5055169;28;20139;-69
2022/04/05 11:56:08;;;;;;;13.88;5.22;;;9.00;99.90;;;;;;5072890;28;20051;-68
2022/04/05 11:58:36;;;;;;;9.13;3.30;;;9.20;99.90;;;;;;5072834;28;20162;-68
2022/04/05 12:01:04;;;;;;;12.57;4.28;;;9.10;99.90;;;;;;5072777;28;20063;-68
2022/04/05 12:03:41;;;;;;;16.02;3.30;;;9.20;99.90;;;;;;5054714;28;20128;-69
2022/04/05 12:06:07;;;;;;;7.22;2.92;;;9.20;99.90;;;;;;5072823;28;20044;-68
2022/04/05 12:08:32;;;;;;;6.32;2.92;;;9.60;99.90;;;;;;5072678;28;20048;-68
2022/04/05 12:10:58;;;;;;;9.68;6.18;;;9.80;99.90;;;;;;5072572;28;20047;-68
2022/04/05 12:13:34;;;;;;;7.65;2.60;;;9.20;99.90;;;;;;5072627;28;20056;-68
2022/04/05 12:16:01;;;;;;;4.97;2.22;;;9.30;99.90;;;;;;5072706;28;20052;-68
2022/04/05 12:18:28;;;;;;;5.70;2.75;;;9.50;99.90;;;;;;5072566;28;20070;-68
2022/04/05 12:21:00;;;;;;;10.43;2.80;;;9.30;99.90;;;;;;5072527;28;20141;-68
2022/04/05 12:23:45;;;;;;;9.30;3.00;;;9.50;99.90;;;;;;5072565;28;20049;-69
2022/04/05 12:26:16;;;;;;;6.35;3.00;;;10.40;99.90;;;;;;5072502;28;20058;-69
2022/04/05 12:28:55;;;;;;;7.32;2.75;;;9.30;99.90;;;;;;5072382;28;20485;-68
2022/04/05 12:31:23;;;;;;;6.35;2.90;;;9.20;99.90;;;;;;5054062;28;20064;-68
2022/04/05 12:34:01;;;;;;;6.45;2.78;;;9.50;99.90;;;;;;5072321;28;20052;-68
2022/04/05 12:36:38;;;;;;;10.85;3.17;;;10.80;99.90;;;;;;5072310;28;20044;-68
2022/04/05 12:39:18;;;;;;;9.77;4.70;;;9.40;99.90;;;;;;5072473;28;20059;-68
2022/04/05 12:41:46;;;;;;;16.30;8.38;;;9.40;99.90;;;;;;5072352;28;20141;-68
2022/04/05 12:44:14;;;;;;;25.48;15.43;;;9.60;99.90;;;;;;5074928;28;20055;-68
2022/04/05 12:46:43;;;;;;;11.43;6.70;;;9.70;99.90;;;;;;5056317;28;20137;-68
2022/04/05 12:49:49;;;;;;;7.32;3.70;;;10.10;99.90;;;;;;5076516;28;20044;-68
2022/04/05 12:52:19;;;;;;;5.60;3.30;;;9.30;99.90;;;;;;5076435;28;20400;-68
2022/04/05 12:54:58;;;;;;;8.52;3.17;;;11.00;99.90;;;;;;5076351;28;20052;-68
2022/04/05 12:57:32;;;;;;;8.30;3.47;;;9.60;99.90;;;;;;5058441;28;20091;-68